createdAt,value
2023-09-01T03:41:15.020Z,1.47
2023-09-01T03:56:21.796Z,1.93
2023-09-01T04:11:26.408Z,1.37
2023-09-01T04:26:30.982Z,1.37
2023-09-01T04:41:35.730Z,2.30
2023-09-01T04:56:41.072Z,2.37
2023-09-01T05:11:45.989Z,1.57
2023-09-01T05:26:50.684Z,1.33
2023-09-01T05:41:55.333Z,1.60
2023-09-01T05:57:00.095Z,1.70
2023-09-01T06:12:05.283Z,1.80
2023-09-01T06:27:09.773Z,3.23
2023-09-01T06:42:14.577Z,3.90
2023-09-01T06:57:19.322Z,1.77
2023-09-01T07:12:23.876Z,1.40
2023-09-01T07:27:28.487Z,1.50
2023-09-01T07:42:33.075Z,1.57
2023-09-01T07:57:40.447Z,2.57
2023-09-01T08:12:46.709Z,1.00
2023-09-01T08:27:51.248Z,0.87
2023-09-01T08:42:58.205Z,1.23
2023-09-01T08:58:03.502Z,1.47
2023-09-01T09:13:23.621Z,2.37
2023-09-01T09:28:28.270Z,1.57
2023-09-01T09:43:47.349Z,2.20
2023-09-01T09:59:14.690Z,1.60
2023-09-01T10:14:22.341Z,1.47
2023-09-01T10:29:35.416Z,1.30
2023-09-01T10:45:12.578Z,1.87
2023-09-01T11:00:31.134Z,1.00
2023-09-01T11:15:38.610Z,1.87
2023-09-01T11:30:54.942Z,1.27
2023-09-01T11:45:59.692Z,1.57
2023-09-01T12:01:11.038Z,1.70
2023-09-01T12:16:23.360Z,1.70
2023-09-01T12:31:27.873Z,1.43
2023-09-01T12:46:32.460Z,1.67
2023-09-01T13:01:37.229Z,1.57
2023-09-01T13:16:41.734Z,1.57
2023-09-01T13:31:49.587Z,1.17
2023-09-01T13:46:54.190Z,1.20
2023-09-01T14:01:59.229Z,1.57
2023-09-01T14:17:04.741Z,1.60
2023-09-01T14:32:10.362Z,0.90
2023-09-01T14:47:14.915Z,0.87
2023-09-01T15:02:19.564Z,1.30
2023-09-01T15:17:24.434Z,1.47
2023-09-01T15:32:29.424Z,1.20
2023-09-01T15:47:33.960Z,1.77
2023-09-01T16:02:38.585Z,0.80
2023-09-01T16:17:43.350Z,1.10
2023-09-01T16:32:48.423Z,1.23
2023-09-01T16:47:53.162Z,2.23
2023-09-01T17:02:57.912Z,1.20
2023-09-01T17:18:02.751Z,1.60
2023-09-01T17:33:07.708Z,1.73
2023-09-01T17:48:12.437Z,2.30
2023-09-01T18:03:17.537Z,1.70
2023-09-01T18:18:22.721Z,1.97
2023-09-01T18:33:47.639Z,2.10
2023-09-01T18:48:52.461Z,2.40
2023-09-01T19:03:57.250Z,2.80
2023-09-01T19:19:03.742Z,3.57
2023-09-01T19:34:10.389Z,4.37
2023-09-01T19:49:16.718Z,3.93
2023-09-01T20:04:21.447Z,4.73
2023-09-01T20:19:29.172Z,9.03
2023-09-01T20:34:52.777Z,3.83
2023-09-01T20:49:58.850Z,4.50
2023-09-01T21:05:05.283Z,4.13
2023-09-01T21:20:10.996Z,6.23
2023-09-01T21:35:16.574Z,6.83
2023-09-01T21:50:21.197Z,6.87
2023-09-01T22:05:25.756Z,4.47
2023-09-01T22:20:30.288Z,7.73
2023-09-01T22:35:35.071Z,7.87
2023-09-01T22:50:39.663Z,8.07
2023-09-01T23:05:44.195Z,6.20
2023-09-01T23:20:49.070Z,7.30
2023-09-01T23:35:53.732Z,5.83
2023-09-01T23:50:58.300Z,5.77
